Time;durP1;ratioP1;P1;durP2;ratioP2;P2;SDS_P1;SDS_P2;PMS_P1;PMS_P2;Temp;Humidity;BMP_temperature;BMP_pressure;BME280_temperature;BME280_humidity;BME280_pressure;Samples;Min_cycle;Max_cycle;Signal;HPM_P1;HPM_P2
2023/03/06 00:00:57;;;;;;;2.97;1.20;;;;;;;-146.25;100.00;52463.50;2105905;28;30565;-87
2023/03/06 00:01:58;;;;;;;2.92;0.90;;;;;;;-146.25;100.00;52447.28;2105103;28;33158;-87
2023/03/06 00:03:00;;;;;;;2.63;1.10;;;;;;;-146.25;100.00;52449.31;2106459;28;20047;-88
2023/03/06 00:04:02;;;;;;;2.30;1.00;;;;;;;-146.25;100.00;52408.75;2105330;28;34451;-87
2023/03/06 00:05:07;;;;;;;2.03;0.90;;;;;;;-146.25;100.00;52424.97;2106752;28;20114;-89
2023/03/06 00:06:09;;;;;;;4.05;1.02;;;;;;;-146.25;100.00;52433.06;2104481;28;36689;-85
2023/03/06 00:07:10;;;;;;;2.42;0.80;;;;;;;-146.25;100.00;52416.84;2096383;28;37391;-85
2023/03/06 00:08:12;;;;;;;3.42;0.77;;;;;;;-146.25;100.00;52445.25;2096657;28;34064;-87
2023/03/06 00:09:14;;;;;;;3.90;0.88;;;;;;;-146.25;100.00;52447.28;2105132;28;36471;-84
2023/03/06 00:10:25;;;;;;;2.13;0.85;;;;;;;-146.25;100.00;52433.06;2098857;28;20056;-85
2023/03/06 00:11:27;;;;;;;2.13;0.75;;;;;;;-146.25;100.00;52457.41;2091105;28;35249;-83
2023/03/06 00:12:29;;;;;;;3.47;1.13;;;;;;;-146.25;100.00;52433.06;2097603;28;37799;-85
2023/03/06 00:13:30;;;;;;;2.78;0.95;;;;;;;-146.25;100.00;52420.91;2105268;28;32297;-84
2023/03/06 00:14:32;;;;;;;1.52;0.70;;;;;;;-146.25;100.00;52416.84;2105116;28;31737;-81
2023/03/06 00:15:34;;;;;;;2.55;0.77;;;;;;;-146.25;100.00;52437.13;2106123;28;20064;-80
2023/03/06 00:16:36;;;;;;;1.60;1.02;;;;;;;-146.25;100.00;52429.03;2105240;28;36666;-81
2023/03/06 00:17:38;;;;;;;1.30;0.77;;;;;;;-146.25;100.00;52443.22;2105024;28;37018;-81
2023/03/06 00:18:42;;;;;;;2.03;1.10;;;;;;;-146.25;100.00;52435.09;2096180;28;23384;-81
2023/03/06 00:19:44;;;;;;;1.65;0.63;;;;;;;-146.25;100.00;52473.63;2097403;28;36393;-81
2023/03/06 00:20:46;;;;;;;2.13;1.00;;;;;;;-146.25;100.00;52433.06;2105528;28;20033;-81
2023/03/06 00:21:48;;;;;;;2.00;1.15;;;;;;;-146.25;100.00;52473.63;2096516;28;34475;-81
2023/03/06 00:22:50;;;;;;;3.30;1.00;;;;;;;-146.25;100.00;52445.25;2087774;28;35878;-84
2023/03/06 00:23:52;;;;;;;1.70;1.02;;;;;;;-146.25;100.00;52459.44;2088344;28;35681;-85
2023/03/06 00:24:53;;;;;;;2.80;1.13;;;;;;;-146.25;100.00;52453.34;2088560;28;38713;-86
2023/03/06 00:25:55;;;;;;;3.40;1.10;;;;;;;-146.25;100.00;52439.16;2101698;28;36017;-85
2023/03/06 00:26:57;;;;;;;2.45;1.13;;;;;;;-146.25;100.00;52445.25;2105013;28;32368;-84
2023/03/06 00:27:58;;;;;;;1.95;1.13;;;;;;;-146.25;100.00;52408.75;2105471;28;37615;-84
2023/03/06 00:29:02;;;;;;;2.42;1.08;;;;;;;-146.25;100.00;52439.16;2095864;28;24681;-82
2023/03/06 00:30:05;;;;;;;3.80;1.23;;;;;;;-146.25;100.00;52424.97;2096684;28;31244;-82
2023/03/06 00:31:08;;;;;;;3.08;1.20;;;;;;;-146.25;100.00;52392.53;2105608;28;20155;-81
2023/03/06 00:32:09;;;;;;;3.28;1.20;;;;;;;-146.25;100.00;52445.25;2105566;28;28978;-80
2023/03/06 00:33:11;;;;;;;2.28;1.10;;;;;;;-146.25;100.00;52445.25;2105268;28;27696;-81
2023/03/06 00:34:13;;;;;;;2.78;1.20;;;;;;;-146.25;100.00;52461.47;2105688;28;30007;-81
2023/03/06 00:35:15;;;;;;;4.13;1.40;;;;;;;-146.25;100.00;52469.56;2104969;28;26179;-80
2023/03/06 00:36:17;;;;;;;2.10;1.10;;;;;;;-146.25;100.00;52424.97;2096634;28;20900;-81
2023/03/06 00:37:22;;;;;;;4.72;1.13;;;;;;;-146.25;100.00;52455.38;2096555;28;21608;-81
2023/03/06 00:38:26;;;;;;;1.77;1.35;;;;;;;-146.25;100.00;52396.59;2105570;28;28332;-81
2023/03/06 00:39:32;;;;;;;2.53;1.33;;;;;;;-146.25;100.00;52422.94;2096717;28;20128;-80
2023/03/06 00:40:34;;;;;;;2.53;1.45;;;;;;;-146.25;100.00;52467.56;2096655;28;24983;-80
2023/03/06 00:41:35;;;;;;;2.88;1.17;;;;;;;-146.25;100.00;52429.03;2104405;28;34710;-77
2023/03/06 00:42:37;;;;;;;2.45;1.20;;;;;;;-146.25;100.00;52447.28;2096533;28;26856;-76
2023/03/06 00:43:39;;;;;;;2.85;1.58;;;;;;;-146.25;100.00;52439.16;2096178;28;20791;-75
2023/03/06 00:44:41;;;;;;;1.92;1.48;;;;;;;-146.25;100.00;52447.28;2105469;28;20245;-75
2023/03/06 00:45:43;;;;;;;1.70;1.17;;;;;;;-146.25;100.00;52439.16;2096457;28;20037;-73
2023/03/06 00:46:45;;;;;;;2.85;1.40;;;;;;;-146.25;100.00;52443.22;2087943;28;35257;-76
2023/03/06 00:47:47;;;;;;;1.90;1.30;;;;;;;-146.25;100.00;52445.25;2096280;28;30645;-75
2023/03/06 00:48:48;;;;;;;1.65;1.08;;;;;;;-146.25;100.00;52445.25;2096581;28;23631;-75
2023/03/06 00:49:54;;;;;;;1.85;1.50;;;;;;;-146.25;100.00;52449.31;2096992;28;20911;-74
2023/03/06 00:50:55;;;;;;;2.22;1.63;;;;;;;-146.25;100.00;52437.13;2104914;28;23349;-74
2023/03/06 00:51:57;;;;;;;2.03;1.40;;;;;;;-146.25;100.00;52358.06;2105423;28;20040;-74
2023/03/06 00:52:59;;;;;;;2.90;1.40;;;;;;;-146.25;100.00;52439.16;2096015;28;35224;-73
2023/03/06 00:54:01;;;;;;;2.20;1.40;;;;;;;-146.25;100.00;52445.25;2096631;28;20040;-73
2023/03/06 00:55:04;;;;;;;2.45;1.25;;;;;;;-146.25;100.00;52392.53;2105929;28;20051;-72
2023/03/06 00:56:07;;;;;;;3.65;1.50;;;;;;;-146.25;100.00;52453.34;2095788;28;25341;-72
2023/03/06 00:57:09;;;;;;;1.70;1.17;;;;;;;-146.25;100.00;52455.38;2097230;28;20964;-72
2023/03/06 00:58:11;;;;;;;2.95;1.33;;;;;;;-146.25;100.00;52420.91;2105140;28;31943;-73
2023/03/06 00:59:13;;;;;;;1.42;1.33;;;;;;;-146.25;100.00;52443.22;2105441;28;25095;-73
2023/03/06 01:00:15;;;;;;;1.98;1.35;;;;;;;-146.25;100.00;52445.25;2096232;28;20076;-72
2023/03/06 01:01:20;;;;;;;3.72;1.67;;;;;;;-146.25;100.00;52437.13;2088297;28;20049;-72
2023/03/06 01:02:22;;;;;;;2.13;1.42;;;;;;;-146.25;100.00;52439.16;2096852;28;20048;-72
2023/03/06 01:03:23;;;;;;;1.92;1.73;;;;;;;-146.25;100.00;52429.03;2105783;28;24940;-72
2023/03/06 01:04:26;;;;;;;1.98;1.50;;;;;;;-146.25;100.00;52451.31;2105685;28;20996;-72
2023/03/06 01:05:29;;;;;;;2.15;1.60;;;;;;;-146.25;100.00;52418.88;2105994;28;20037;-72
2023/03/06 01:06:33;;;;;;;4.43;1.40;;;;;;;-146.25;100.00;52427.00;2105480;28;20960;-72
2023/03/06 01:07:37;;;;;;;2.15;1.75;;;;;;;-146.25;100.00;52418.88;2105548;28;20039;-72
2023/03/06 01:08:39;;;;;;;2.20;1.70;;;;;;;-146.25;100.00;52429.03;2105288;28;20040;-71
2023/03/06 01:09:40;;;;;;;3.50;1.55;;;;;;;-146.25;100.00;52424.97;2096071;28;27908;-72
2023/03/06 01:10:42;;;;;;;3.65;1.77;;;;;;;-146.25;100.00;52457.41;2096302;28;27730;-72
2023/03/06 01:11:44;;;;;;;2.30;1.92;;;;;;;-146.25;100.00;52404.69;2105615;28;26140;-71
2023/03/06 01:12:45;;;;;;;1.98;1.88;;;;;;;-146.25;100.00;52406.72;2104903;28;29598;-71
2023/03/06 01:13:47;;;;;;;6.28;1.80;;;;;;;-146.25;100.00;52461.47;2096460;28;20887;-71
2023/03/06 01:14:49;;;;;;;2.80;2.30;;;;;;;-146.25;100.00;52429.03;2087678;28;29242;-71
2023/03/06 01:15:51;;;;;;;2.13;1.92;;;;;;;-146.25;100.00;52406.72;2096525;28;26694;-70
2023/03/06 01:16:55;;;;;;;2.22;1.90;;;;;;;-146.25;100.00;52422.94;2096320;28;20041;-71
2023/03/06 01:17:57;;;;;;;2.83;2.00;;;;;;;-146.25;100.00;52416.84;2096560;28;20045;-70
2023/03/06 01:18:58;;;;;;;2.60;2.03;;;;;;;-146.25;100.00;52445.25;2105170;28;21178;-71
2023/03/06 01:20:00;;;;;;;1.95;1.80;;;;;;;-146.25;100.00;52416.84;2096543;28;20275;-71
2023/03/06 01:21:03;;;;;;;2.13;1.92;;;;;;;-146.25;100.00;52439.16;2095598;28;25673;-71
2023/03/06 01:22:05;;;;;;;3.03;1.80;;;;;;;-146.25;100.00;52481.75;2096531;28;20045;-71
2023/03/06 01:23:07;;;;;;;2.20;2.00;;;;;;;-146.25;100.00;52437.13;2095951;28;27573;-71
2023/03/06 01:24:09;;;;;;;4.40;1.80;;;;;;;-146.25;100.00;52451.31;2096529;28;20909;-71
2023/03/06 01:25:11;;;;;;;1.90;1.52;;;;;;;-146.25;100.00;52437.13;2096467;28;27402;-71
2023/03/06 01:26:14;;;;;;;2.10;1.90;;;;;;;-146.25;100.00;52431.06;2105545;28;30996;-71
2023/03/06 01:27:18;;;;;;;2.00;1.80;;;;;;;-146.25;100.00;52424.97;2105194;28;20040;-71
2023/03/06 01:28:19;;;;;;;2.33;2.13;;;;;;;-146.25;100.00;52433.06;2096209;28;34874;-71
2023/03/06 01:29:21;;;;;;;2.75;1.92;;;;;;;-146.25;100.00;52424.97;2095132;28;33246;-70
2023/03/06 01:30:23;;;;;;;2.10;1.60;;;;;;;-146.25;100.00;52449.31;2105003;28;30161;-70
2023/03/06 01:31:25;;;;;;;3.17;2.00;;;;;;;-146.25;100.00;52414.84;2104695;28;31331;-71
2023/03/06 01:32:27;;;;;;;3.88;2.38;;;;;;;-146.25;100.00;52475.66;2105266;28;20158;-70
2023/03/06 01:33:29;;;;;;;1.88;1.73;;;;;;;-146.25;100.00;52400.63;2105260;28;24379;-70
2023/03/06 01:34:31;;;;;;;2.00;1.60;;;;;;;-146.25;100.00;52429.03;2104525;28;32637;-70
2023/03/06 01:35:33;;;;;;;1.55;1.45;;;;;;;-146.25;100.00;52453.34;2104961;28;20794;-70
2023/03/06 01:36:34;;;;;;;2.45;1.70;;;;;;;-146.25;100.00;52447.28;2105277;28;32645;-70
2023/03/06 01:37:37;;;;;;;2.97;2.10;;;;;;;-146.25;100.00;52453.34;2105561;28;20044;-70
2023/03/06 01:38:39;;;;;;;2.55;2.28;;;;;;;-146.25;100.00;52465.53;2105682;28;20079;-70
2023/03/06 01:39:41;;;;;;;2.28;2.08;;;;;;;-146.25;100.00;52441.19;2104482;28;34319;-69
2023/03/06 01:40:43;;;;;;;4.15;2.00;;;;;;;-146.25;100.00;52441.19;2104936;28;23670;-69
2023/03/06 01:41:45;;;;;;;2.35;2.15;;;;;;;-146.25;100.00;52447.28;2104128;28;27903;-70
2023/03/06 01:42:48;;;;;;;2.88;2.05;;;;;;;-146.25;100.00;52447.28;2104186;28;25260;-70
2023/03/06 01:43:50;;;;;;;2.17;2.03;;;;;;;-146.25;100.00;52453.34;2087478;28;20127;-69
2023/03/06 01:45:03;;;;;;;2.25;1.77;;;;;;;-146.25;100.00;52475.66;2088322;28;20041;-69
2023/03/06 01:46:32;;;;;;;2.13;1.92;;;;;;;-146.25;100.00;52427.00;2104893;28;26294;-69
2023/03/06 01:47:34;;;;;;;2.38;2.17;;;;;;;-146.25;100.00;52433.06;2095996;28;24859;-69
2023/03/06 01:48:36;;;;;;;3.15;2.33;;;;;;;-146.25;100.00;52455.38;2096037;28;27790;-69
2023/03/06 01:49:40;;;;;;;2.97;2.50;;;;;;;-146.25;100.00;52437.13;2105712;28;26854;-69
2023/03/06 01:50:42;;;;;;;3.45;2.70;;;;;;;-146.25;100.00;52429.03;2104401;28;33068;-68
2023/03/06 01:51:59;;;;;;;2.67;2.30;;;;;;;-146.25;100.00;52402.66;2096076;28;20980;-68
2023/03/06 01:53:01;;;;;;;2.88;2.60;;;;;;;-146.25;100.00;52394.56;2098887;28;20072;-68
2023/03/06 01:54:10;;;;;;;3.53;2.40;;;;;;;-146.25;100.00;52449.31;2105012;28;28562;-68
2023/03/06 01:55:18;;;;;;;2.40;2.20;;;;;;;-146.25;100.00;52433.06;2105014;28;28571;-68
2023/03/06 01:56:21;;;;;;;3.00;2.42;;;;;;;-146.25;100.00;52437.13;2104938;28;27017;-68
2023/03/06 01:57:37;;;;;;;2.67;2.47;;;;;;;-146.25;100.00;52418.88;2096070;28;20048;-67
2023/03/06 01:58:42;;;;;;;2.95;2.20;;;;;;;-146.25;100.00;52453.34;2089474;28;20942;-67
2023/03/06 01:59:50;;;;;;;2.28;2.08;;;;;;;-146.25;100.00;52433.06;2081103;28;20042;-67
2023/03/06 02:00:52;;;;;;;3.40;1.80;;;;;;;-146.25;100.00;52433.06;2089985;28;28476;-67
2023/03/06 02:02:00;;;;;;;2.78;1.70;;;;;;;-146.25;100.00;52469.56;2096024;28;30698;-67
2023/03/06 02:03:13;;;;;;;1.70;1.48;;;;;;;-146.25;100.00;52429.03;2096746;28;37986;-66
2023/03/06 02:04:17;;;;;;;2.10;1.88;;;;;;;-146.25;100.00;52445.25;2105019;28;20191;-66
2023/03/06 02:05:19;;;;;;;2.75;1.40;;;;;;;-146.25;100.00;52449.31;2096156;28;24113;-67
2023/03/06 02:06:21;;;;;;;2.20;2.00;;;;;;;-146.25;100.00;52431.06;2080121;28;20129;-66
2023/03/06 02:07:26;;;;;;;3.65;2.20;;;;;;;-146.25;100.00;52441.19;2087932;28;29710;-67
2023/03/06 02:08:28;;;;;;;2.60;2.38;;;;;;;-146.25;100.00;52433.06;2104410;28;24882;-67
2023/03/06 02:09:32;;;;;;;3.00;1.88;;;;;;;-146.25;100.00;52455.38;2095965;28;23212;-67
2023/03/06 02:10:34;;;;;;;1.90;1.38;;;;;;;-146.25;100.00;52435.09;2096454;28;32347;-67
2023/03/06 02:11:35;;;;;;;2.30;1.50;;;;;;;-146.25;100.00;52441.19;2095616;28;28043;-67
2023/03/06 02:12:42;;;;;;;2.00;1.73;;;;;;;-146.25;100.00;52477.69;2096363;28;27854;-67
2023/03/06 02:13:46;;;;;;;2.17;1.27;;;;;;;-146.25;100.00;52445.25;2104626;28;35206;-67
2023/03/06 02:14:48;;;;;;;1.77;1.35;;;;;;;-146.25;100.00;52429.03;2103405;28;38099;-67
2023/03/06 02:15:50;;;;;;;1.60;1.50;;;;;;;-146.25;100.00;52412.81;2096064;28;24423;-67
2023/03/06 02:16:53;;;;;;;2.28;1.67;;;;;;;-146.25;100.00;52453.34;2096499;28;20084;-67
2023/03/06 02:17:58;;;;;;;2.80;1.60;;;;;;;-146.25;100.00;52461.47;2104801;28;30290;-67
2023/03/06 02:19:03;;;;;;;2.42;1.30;;;;;;;-146.25;100.00;52422.94;2095982;28;20048;-67
2023/03/06 02:20:28;;;;;;;2.75;1.58;;;;;;;-146.25;100.00;52414.84;2087983;28;29422;-67
2023/03/06 02:21:36;;;;;;;3.28;1.27;;;;;;;-146.25;100.00;52447.28;2090550;28;20855;-67
2023/03/06 02:23:04;;;;;;;1.48;1.15;;;;;;;-146.25;100.00;52445.25;2098929;28;33080;-67
2023/03/06 02:24:47;;;;;;;2.15;1.52;;;;;;;-146.25;100.00;52431.06;2096013;28;21031;-67
2023/03/06 02:25:51;;;;;;;1.88;1.65;;;;;;;-146.25;100.00;52437.13;2093260;28;20088;-67
2023/03/06 02:26:55;;;;;;;1.55;1.40;;;;;;;-146.25;100.00;52463.50;2088103;28;20965;-67
2023/03/06 02:27:57;;;;;;;1.98;1.50;;;;;;;-146.25;100.00;52429.03;2079479;28;20914;-67
2023/03/06 02:28:59;;;;;;;2.95;1.73;;;;;;;-146.25;100.00;52416.84;2088168;28;20041;-67
2023/03/06 02:30:06;;;;;;;2.55;1.70;;;;;;;-146.25;100.00;52447.28;2104289;28;20041;-67
2023/03/06 02:31:22;;;;;;;2.72;1.40;;;;;;;-146.25;100.00;52447.28;2087714;28;20045;-66
2023/03/06 02:32:24;;;;;;;2.00;1.65;;;;;;;-146.25;100.00;52439.16;2098454;28;20984;-66
2023/03/06 02:33:28;;;;;;;2.47;2.00;;;;;;;-146.25;100.00;52457.41;2104965;28;20036;-66
2023/03/06 02:34:36;;;;;;;2.65;2.00;;;;;;;-146.25;100.00;52441.19;2105171;28;20091;-67
2023/03/06 02:35:39;;;;;;;2.30;2.10;;;;;;;-146.25;100.00;52422.94;2104542;28;26798;-66
2023/03/06 02:36:48;;;;;;;2.50;1.75;;;;;;;-146.25;100.00;52453.34;2105050;28;30893;-67
2023/03/06 02:37:52;;;;;;;2.88;2.10;;;;;;;-146.25;100.00;52447.28;2095991;28;20159;-67
2023/03/06 02:38:56;;;;;;;2.50;2.20;;;;;;;-146.25;100.00;52445.25;2096157;28;20075;-67
2023/03/06 02:40:07;;;;;;;2.78;2.53;;;;;;;-146.25;100.00;52437.13;2095179;28;21496;-68
2023/03/06 02:41:09;;;;;;;3.17;2.78;;;;;;;-146.25;100.00;52429.03;2090416;28;20168;-68
2023/03/06 02:42:24;;;;;;;3.70;2.85;;;;;;;-146.25;100.00;52453.34;2088968;28;24117;-68
2023/03/06 02:43:32;;;;;;;3.60;2.78;;;;;;;-146.25;100.00;52437.13;2082731;28;20922;-68
2023/03/06 02:44:36;;;;;;;2.72;2.22;;;;;;;-146.25;100.00;52457.41;2092004;28;20041;-68
2023/03/06 02:45:45;;;;;;;3.28;2.88;;;;;;;-146.25;100.00;52435.09;2106075;28;20151;-68
2023/03/06 02:46:47;;;;;;;3.47;2.75;;;;;;;-146.25;100.00;52447.28;2089022;28;20041;-68
2023/03/06 02:47:49;;;;;;;4.10;3.33;;;;;;;-146.25;100.00;52424.97;2090300;28;20034;-68
2023/03/06 02:48:50;;;;;;;4.22;3.08;;;;;;;-146.25;100.00;52457.41;2105724;28;20035;-68
2023/03/06 02:49:55;;;;;;;3.85;3.00;;;;;;;-146.25;100.00;52461.47;2097474;28;21023;-68
2023/03/06 02:50:57;;;;;;;3.92;3.40;;;;;;;-146.25;100.00;52449.31;2097365;28;20045;-68
2023/03/06 02:52:00;;;;;;;5.28;2.92;;;;;;;-146.25;100.00;52416.84;2106097;28;20082;-68
2023/03/06 02:53:02;;;;;;;3.17;2.88;;;;;;;-146.25;100.00;52457.41;2105905;28;28262;-67
2023/03/06 02:54:04;;;;;;;4.25;3.05;;;;;;;-146.25;100.00;52414.84;2097199;28;20098;-68
2023/03/06 02:55:07;;;;;;;5.25;3.63;;;;;;;-146.25;100.00;52435.09;2096972;28;23203;-68
2023/03/06 02:56:09;;;;;;;4.28;3.63;;;;;;;-146.25;100.00;52451.31;2106719;28;20163;-68
2023/03/06 02:57:11;;;;;;;4.32;3.35;;;;;;;-146.25;100.00;52431.06;2106389;28;20044;-68
2023/03/06 02:58:13;;;;;;;4.28;3.72;;;;;;;-146.25;100.00;52455.38;2097631;28;20057;-68
2023/03/06 02:59:14;;;;;;;5.30;3.78;;;;;;;-146.25;100.00;52477.69;2096752;28;22988;-68
2023/03/06 03:00:19;;;;;;;4.60;3.72;;;;;;;-146.25;100.00;52437.13;2091043;28;20950;-68
2023/03/06 03:01:21;;;;;;;4.10;3.22;;;;;;;-146.25;100.00;52467.56;2089590;28;20042;-67
2023/03/06 03:02:23;;;;;;;7.28;4.10;;;;;;;-146.25;100.00;52414.84;2088458;28;30126;-68
2023/03/06 03:03:25;;;;;;;3.55;2.95;;;;;;;-146.25;100.00;52435.09;2088412;28;20042;-67
2023/03/06 03:04:30;;;;;;;4.90;3.30;;;;;;;-146.25;100.00;52451.31;2071674;28;20045;-67
2023/03/06 03:05:33;;;;;;;4.55;3.30;;;;;;;-146.25;100.00;52437.13;2081530;28;20713;-67
2023/03/06 03:06:42;;;;;;;4.18;3.08;;;;;;;-146.25;100.00;52463.50;2088647;28;20097;-67
2023/03/06 03:07:45;;;;;;;5.18;3.72;;;;;;;-146.25;100.00;52457.41;2080602;28;20042;-67
2023/03/06 03:08:47;;;;;;;4.68;3.40;;;;;;;-146.25;100.00;52467.56;2089392;28;20041;-68
2023/03/06 03:09:49;;;;;;;6.10;4.03;;;;;;;-146.25;100.00;52447.28;2088880;28;20050;-67
2023/03/06 03:10:51;;;;;;;4.90;3.90;;;;;;;-146.25;100.00;52429.03;2080829;28;20038;-67
2023/03/06 03:11:53;;;;;;;4.78;3.45;;;;;;;-146.25;100.00;52445.25;2080725;28;20128;-67
2023/03/06 03:12:56;;;;;;;5.47;3.30;;;;;;;-146.25;100.00;52445.25;2089193;28;20857;-67
2023/03/06 03:13:58;;;;;;;5.53;4.35;;;;;;;-146.25;100.00;52445.25;2088663;28;20041;-67
2023/03/06 03:15:03;;;;;;;5.78;3.53;;;;;;;-146.25;100.00;52420.91;2080426;28;20927;-68
2023/03/06 03:16:14;;;;;;;4.75;3.45;;;;;;;-146.25;100.00;52422.94;2088823;28;28059;-68
2023/03/06 03:17:16;;;;;;;4.22;2.75;;;;;;;-146.25;100.00;52429.03;2088660;28;20207;-68
2023/03/06 03:18:20;;;;;;;6.30;4.00;;;;;;;-146.25;100.00;52429.03;2089171;28;20076;-68
2023/03/06 03:19:22;;;;;;;4.90;3.60;;;;;;;-146.25;100.00;52471.59;2097858;28;20154;-68
2023/03/06 03:20:24;;;;;;;5.40;3.88;;;;;;;-146.25;100.00;52465.53;2097215;28;20052;-68
2023/03/06 03:21:28;;;;;;;4.90;3.50;;;;;;;-146.25;100.00;52453.34;2088372;28;20042;-68
2023/03/06 03:22:30;;;;;;;6.03;3.80;;;;;;;-146.25;100.00;52388.47;2081033;28;20250;-68
2023/03/06 03:23:32;;;;;;;4.85;3.95;;;;;;;-146.25;100.00;52404.69;2088721;28;20574;-68
2023/03/06 03:24:34;;;;;;;6.05;3.88;;;;;;;-146.25;100.00;52429.03;2097311;28;24921;-68
2023/03/06 03:25:36;;;;;;;5.95;4.00;;;;;;;-146.25;100.00;52461.47;2088444;28;20053;-68
2023/03/06 03:26:38;;;;;;;6.68;3.75;;;;;;;-146.25;100.00;52429.03;2088575;28;20038;-68
2023/03/06 03:27:50;;;;;;;4.25;3.70;;;;;;;-146.25;100.00;52435.09;2088650;28;20045;-67
2023/03/06 03:28:53;;;;;;;5.28;4.13;;;;;;;-146.25;100.00;52447.28;2082701;28;20038;-69
2023/03/06 03:29:57;;;;;;;4.55;3.70;;;;;;;-146.25;100.00;52477.69;2096949;28;20045;-68
2023/03/06 03:31:05;;;;;;;5.57;4.13;;;;;;;-146.25;100.00;52420.91;2097281;28;20233;-68
2023/03/06 03:32:08;;;;;;;4.32;3.35;;;;;;;-146.25;100.00;52427.00;2088852;28;20199;-68
2023/03/06 03:33:11;;;;;;;5.07;3.85;;;;;;;-146.25;100.00;52424.97;2097491;28;20842;-69
2023/03/06 03:34:13;;;;;;;6.57;4.22;;;;;;;-146.25;100.00;52433.06;2105088;28;20965;-69
2023/03/06 03:35:16;;;;;;;4.68;3.60;;;;;;;-146.25;100.00;52479.72;2097178;28;20033;-68
2023/03/06 03:36:18;;;;;;;6.55;3.60;;;;;;;-146.25;100.00;52439.16;2096679;28;20041;-68
2023/03/06 03:37:21;;;;;;;4.78;3.53;;;;;;;-146.25;100.00;52439.16;2096885;28;20215;-68
2023/03/06 03:38:25;;;;;;;5.18;4.18;;;;;;;-146.25;100.00;52451.31;2096857;28;20053;-68
2023/03/06 03:39:29;;;;;;;5.28;3.70;;;;;;;-146.25;100.00;52451.31;2097030;28;20928;-68
2023/03/06 03:40:31;;;;;;;5.30;3.90;;;;;;;-146.25;100.00;52463.50;2096619;28;33223;-69
2023/03/06 03:41:33;;;;;;;4.18;3.15;;;;;;;-146.25;100.00;52412.81;2096858;28;20074;-69
2023/03/06 03:42:40;;;;;;;4.47;2.97;;;;;;;-146.25;100.00;52437.13;2088314;28;20034;-69
2023/03/06 03:43:43;;;;;;;5.57;3.75;;;;;;;-146.25;100.00;52469.56;2089015;28;20099;-69
2023/03/06 03:44:45;;;;;;;5.53;3.60;;;;;;;-146.25;100.00;52447.28;2088530;28;23505;-69
2023/03/06 03:45:47;;;;;;;5.60;3.95;;;;;;;-146.25;100.00;52459.44;2097010;28;23496;-69
2023/03/06 03:46:49;;;;;;;5.38;3.75;;;;;;;-146.25;100.00;52455.38;2096742;28;20048;-68
2023/03/06 03:47:55;;;;;;;5.40;4.00;;;;;;;-146.25;100.00;52441.19;2089491;28;20065;-68
2023/03/06 03:48:58;;;;;;;6.28;3.70;;;;;;;-146.25;100.00;52441.19;2080356;28;20096;-69
2023/03/06 03:50:02;;;;;;;6.25;3.60;;;;;;;-146.25;100.00;52433.06;2081424;28;20181;-69
2023/03/06 03:51:11;;;;;;;6.05;3.80;;;;;;;-146.25;100.00;52473.63;2088629;28;20095;-69
2023/03/06 03:52:16;;;;;;;5.03;3.25;;;;;;;-146.25;100.00;52487.81;2090331;28;20041;-69
2023/03/06 03:53:18;;;;;;;6.35;4.03;;;;;;;-146.25;100.00;52461.47;2087617;28;20052;-69
2023/03/06 03:54:21;;;;;;;5.32;3.53;;;;;;;-146.25;100.00;52420.91;2088794;28;20046;-68
2023/03/06 03:55:24;;;;;;;6.03;3.40;;;;;;;-146.25;100.00;52489.84;2097210;28;20057;-68
2023/03/06 03:56:26;;;;;;;7.63;4.10;;;;;;;-146.25;100.00;52435.09;2096796;28;20037;-69
2023/03/06 03:57:38;;;;;;;5.95;4.18;;;;;;;-146.25;100.00;52475.66;2088399;28;20894;-69
2023/03/06 03:58:40;;;;;;;5.80;4.00;;;;;;;-146.25;100.00;52420.91;2090109;28;20887;-69
2023/03/06 03:59:42;;;;;;;5.75;4.20;;;;;;;-146.25;100.00;52451.31;2096371;28;20933;-69
2023/03/06 04:00:56;;;;;;;6.43;4.45;;;;;;;-146.25;100.00;52427.00;2096943;28;20041;-69
2023/03/06 04:01:58;;;;;;;6.57;4.05;;;;;;;-146.25;100.00;52431.06;2080377;28;20038;-69
2023/03/06 04:03:00;;;;;;;7.25;4.30;;;;;;;-146.25;100.00;52465.53;2089981;28;20059;-69
2023/03/06 04:04:07;;;;;;;5.57;3.72;;;;;;;-146.25;100.00;52473.63;2088410;28;21005;-68
2023/03/06 04:05:14;;;;;;;5.25;3.15;;;;;;;-146.25;100.00;52441.19;2081264;28;20994;-69
2023/03/06 04:06:16;;;;;;;4.93;3.80;;;;;;;-146.25;100.00;52400.63;2080859;28;20906;-69
2023/03/06 04:07:19;;;;;;;4.82;3.20;;;;;;;-146.25;100.00;52433.06;2081209;28;20046;-69
2023/03/06 04:08:21;;;;;;;6.93;4.05;;;;;;;-146.25;100.00;52465.53;2089087;28;20037;-69
2023/03/06 04:09:23;;;;;;;5.90;3.50;;;;;;;-146.25;100.00;52443.22;2088085;28;20053;-69
2023/03/06 04:10:25;;;;;;;5.60;3.70;;;;;;;-146.25;100.00;52451.31;2088651;28;20046;-69
2023/03/06 04:11:27;;;;;;;6.25;3.25;;;;;;;-146.25;100.00;52447.28;2088657;28;20045;-69
2023/03/06 04:12:30;;;;;;;5.47;3.08;;;;;;;-146.25;100.00;52459.44;2096879;28;20842;-69
2023/03/06 04:13:32;;;;;;;5.18;3.17;;;;;;;-146.25;100.00;52443.22;2105276;28;20044;-69
2023/03/06 04:14:34;;;;;;;6.20;3.25;;;;;;;-146.25;100.00;52443.22;2096735;28;20068;-69
2023/03/06 04:15:35;;;;;;;4.47;3.42;;;;;;;-146.25;100.00;52437.13;2088371;28;20426;-69
2023/03/06 04:16:39;;;;;;;4.65;3.17;;;;;;;-146.25;100.00;52443.22;2084057;28;20042;-69
2023/03/06 04:17:42;;;;;;;4.50;3.03;;;;;;;-146.25;100.00;52455.38;2096392;28;20164;-69
2023/03/06 04:18:48;;;;;;;3.33;2.40;;;;;;;-146.25;100.00;52457.41;2097224;28;20776;-70
2023/03/06 04:19:50;;;;;;;3.38;2.38;;;;;;;-146.25;100.00;52455.38;2097650;28;20025;-69
2023/03/06 04:20:52;;;;;;;4.13;2.08;;;;;;;-146.25;100.00;52453.34;2087666;28;20896;-69
2023/03/06 04:21:54;;;;;;;4.70;2.63;;;;;;;-146.25;100.00;52447.28;2079717;28;20088;-69
2023/03/06 04:22:59;;;;;;;4.18;2.50;;;;;;;-146.25;100.00;52457.41;2080716;28;21110;-69
2023/03/06 04:24:01;;;;;;;3.70;2.72;;;;;;;-146.25;100.00;52433.06;2088687;28;20042;-69
2023/03/06 04:25:04;;;;;;;3.55;2.25;;;;;;;-146.25;100.00;52481.75;2087863;28;20046;-70
2023/03/06 04:26:08;;;;;;;2.80;1.85;;;;;;;-146.25;100.00;52424.97;2088541;28;20915;-70
2023/03/06 04:27:10;;;;;;;4.15;1.88;;;;;;;-146.25;100.00;52437.13;2080333;28;20131;-70
2023/03/06 04:28:13;;;;;;;3.50;1.75;;;;;;;-146.25;100.00;52469.56;2072061;28;20043;-70
2023/03/06 04:29:14;;;;;;;3.78;2.08;;;;;;;-146.25;100.00;52441.19;2088763;28;20045;-70
2023/03/06 04:30:16;;;;;;;5.25;2.25;;;;;;;-146.25;100.00;52469.56;2088642;28;20050;-70
2023/03/06 04:31:20;;;;;;;4.38;2.50;;;;;;;-146.25;100.00;52447.28;2088274;28;21005;-70
2023/03/06 04:32:22;;;;;;;4.32;2.13;;;;;;;-146.25;100.00;52431.06;2088121;28;20082;-67
2023/03/06 04:33:24;;;;;;;3.95;2.30;;;;;;;-146.25;100.00;52445.25;2080262;28;20057;-70
2023/03/06 04:34:27;;;;;;;4.18;2.25;;;;;;;-146.25;100.00;52445.25;2080112;28;20887;-69
2023/03/06 04:35:31;;;;;;;3.78;2.28;;;;;;;-146.25;100.00;52461.47;2080340;28;20046;-70
2023/03/06 04:36:37;;;;;;;3.80;2.58;;;;;;;-146.25;100.00;52412.81;2087924;28;20061;-70
2023/03/06 04:37:43;;;;;;;2.80;2.05;;;;;;;-146.25;100.00;52433.06;2087831;28;20041;-70
2023/03/06 04:38:45;;;;;;;4.25;2.00;;;;;;;-146.25;100.00;52465.53;2096420;28;20037;-70
2023/03/06 04:39:47;;;;;;;4.60;1.80;;;;;;;-146.25;100.00;52422.94;2079868;28;20038;-70
2023/03/06 04:40:49;;;;;;;3.35;1.83;;;;;;;-146.25;100.00;52420.91;2087477;28;31598;-69
2023/03/06 04:41:51;;;;;;;3.60;2.50;;;;;;;-146.25;100.00;52441.19;2097237;28;20041;-70
2023/03/06 04:42:54;;;;;;;3.28;2.35;;;;;;;-146.25;100.00;52455.38;2097179;28;20047;-69
2023/03/06 04:43:56;;;;;;;4.90;2.78;;;;;;;-146.25;100.00;52418.88;2087787;28;29800;-69
2023/03/06 04:44:58;;;;;;;5.47;2.55;;;;;;;-146.25;100.00;52431.06;2088558;28;20080;-70
2023/03/06 04:46:00;;;;;;;6.22;2.53;;;;;;;-146.25;100.00;52479.72;2096801;28;31913;-70
2023/03/06 04:47:02;;;;;;;6.00;2.63;;;;;;;-146.25;100.00;52420.91;2100022;28;35050;-70
2023/03/06 04:48:04;;;;;;;5.13;2.60;;;;;;;-146.25;100.00;52424.97;2104884;28;37087;-70
2023/03/06 04:49:06;;;;;;;3.40;2.55;;;;;;;-146.25;100.00;52447.28;2105028;28;32881;-70
2023/03/06 04:50:09;;;;;;;4.55;2.50;;;;;;;-146.25;100.00;52465.53;2104662;28;35718;-70